Time;durP1;ratioP1;P1;durP2;ratioP2;P2;SDS_P1;SDS_P2;PMS_P1;PMS_P2;Temp;Humidity;BMP_temperature;BMP_pressure;BME280_temperature;BME280_humidity;BME280_pressure;Samples;Min_cycle;Max_cycle;Signal;HPM_P1;HPM_P2
2023/01/01 00:00:05;;;;;;;27.20;20.43;;;;;;;;;;4939394;28;20453;-63
2023/01/01 00:02:31;;;;;;;25.03;19.63;;;;;;;;;;4988821;28;20539;-62
2023/01/01 00:04:57;;;;;;;25.53;18.80;;;;;;;;;;4940732;28;20450;-63
2023/01/01 00:07:23;;;;;;;24.00;20.10;;;;;;;;;;4989486;28;20181;-63
2023/01/01 00:12:33;;;;;;;19.93;15.30;;;;;;;;;;4985043;28;20436;-62
2023/01/01 00:14:59;;;;;;;16.73;14.20;;;;;;;;;;4965182;28;20475;-64
2023/01/01 00:17:25;;;;;;;18.40;14.10;;;;;;;;;;4994736;28;20486;-63
2023/01/01 00:19:51;;;;;;;17.47;13.60;;;;;;;;;;4967033;28;20324;-64
2023/01/01 00:22:17;;;;;;;13.63;11.90;;;;;;;;;;4985913;28;20440;-67
2023/01/01 00:24:43;;;;;;;15.17;12.50;;;;;;;;;;4978662;28;20188;-62
2023/01/01 00:27:09;;;;;;;15.50;11.60;;;;;;;;;;4973937;28;20443;-63
2023/01/01 00:29:35;;;;;;;16.83;11.60;;;;;;;;;;4952588;28;20178;-65
2023/01/01 00:32:01;;;;;;;9.93;8.90;;;;;;;;;;4954091;28;20460;-65
2023/01/01 00:34:27;;;;;;;14.97;8.80;;;;;;;;;;4979063;28;20225;-62
2023/01/01 00:36:53;;;;;;;15.43;7.57;;;;;;;;;;4960628;28;20189;-64
2023/01/01 00:39:19;;;;;;;10.60;8.30;;;;;;;;;;4983756;28;20444;-64
2023/01/01 00:41:45;;;;;;;9.50;7.87;;;;;;;;;;4957259;28;20464;-63
2023/01/01 00:44:11;;;;;;;10.00;6.60;;;;;;;;;;4987741;28;20448;-64
2023/01/01 00:46:37;;;;;;;12.13;9.50;;;;;;;;;;4958891;28;20222;-64
2023/01/01 00:49:03;;;;;;;17.53;12.53;;;;;;;;;;4988522;28;20327;-63
2023/01/01 00:51:29;;;;;;;17.57;12.40;;;;;;;;;;4978560;28;20170;-63
2023/01/01 00:53:55;;;;;;;37.70;23.40;;;;;;;;;;4986506;28;20476;-62
2023/01/01 00:56:21;;;;;;;30.87;22.43;;;;;;;;;;4978918;28;20455;-62
2023/01/01 00:58:47;;;;;;;32.87;20.23;;;;;;;;;;4979578;28;20444;-62
2023/01/01 01:01:13;;;;;;;32.20;25.13;;;;;;;;;;4936172;28;20757;-63
2023/01/01 01:03:39;;;;;;;33.00;25.27;;;;;;;;;;4988712;28;21022;-60
2023/01/01 01:06:05;;;;;;;37.00;28.17;;;;;;;;;;4964087;28;21028;-61
2023/01/01 01:08:31;;;;;;;39.47;26.93;;;;;;;;;;4980969;28;20456;-62
2023/01/01 01:11:04;;;;;;;46.40;34.47;;;;;;;;;;4966016;28;20954;-61
2023/01/01 01:13:30;;;;;;;40.30;30.97;;;;;;;;;;4979731;28;20479;-62
2023/01/01 01:15:56;;;;;;;52.10;36.83;;;;;;;;;;4968019;28;20456;-63
2023/01/01 01:18:22;;;;;;;51.00;35.50;;;;;;;;;;4947109;28;20447;-64
2023/01/01 01:20:51;;;;;;;67.60;49.93;;;;;;;;;;4973682;28;20428;-64
2023/01/01 01:23:18;;;;;;;73.93;46.03;;;;;;;;;;4968933;28;20444;-64
2023/01/01 01:25:44;;;;;;;59.60;40.53;;;;;;;;;;4987596;28;20435;-62
2023/01/01 01:28:09;;;;;;;65.20;45.60;;;;;;;;;;4970698;28;20444;-63
2023/01/01 01:30:39;;;;;;;40.37;29.33;;;;;;;;;;4986130;28;20518;-62
2023/01/01 01:33:04;;;;;;;48.87;33.60;;;;;;;;;;4985178;28;20454;-64
2023/01/01 01:35:31;;;;;;;47.27;31.90;;;;;;;;;;4979688;28;20416;-66
2023/01/01 01:37:57;;;;;;;48.03;32.00;;;;;;;;;;4945182;28;22094;-62
2023/01/01 01:40:23;;;;;;;42.50;31.70;;;;;;;;;;4975819;28;21139;-65
2023/01/01 01:42:50;;;;;;;50.70;34.03;;;;;;;;;;4962426;28;20474;-63
2023/01/01 01:45:16;;;;;;;37.73;30.07;;;;;;;;;;4985341;28;20527;-61
2023/01/01 01:47:49;;;;;;;45.50;30.17;;;;;;;;;;4920057;28;22555;-64
2023/01/01 01:50:28;;;;;;;47.97;34.00;;;;;;;;;;4961839;28;20436;-62
2023/01/01 01:53:02;;;;;;;45.47;33.17;;;;;;;;;;4971184;28;20466;-63
2023/01/01 01:55:29;;;;;;;34.50;25.53;;;;;;;;;;4977971;28;20462;-60
2023/01/01 01:57:55;;;;;;;40.77;28.50;;;;;;;;;;4953556;28;20527;-62
2023/01/01 02:00:21;;;;;;;41.73;28.33;;;;;;;;;;4952737;28;21020;-62
2023/01/01 02:02:50;;;;;;;41.43;27.87;;;;;;;;;;4987822;28;20478;-60
2023/01/01 02:05:17;;;;;;;40.13;27.23;;;;;;;;;;4982013;28;21007;-63
2023/01/01 02:07:43;;;;;;;34.57;25.97;;;;;;;;;;4953859;28;20445;-61
2023/01/01 02:10:09;;;;;;;39.80;24.77;;;;;;;;;;4935264;28;22326;-61
2023/01/01 02:12:35;;;;;;;45.03;26.47;;;;;;;;;;4957969;28;20443;-59
2023/01/01 02:15:01;;;;;;;33.60;23.23;;;;;;;;;;4970795;28;20523;-61
2023/01/01 02:17:33;;;;;;;25.17;17.90;;;;;;;;;;4955215;28;20564;-59
2023/01/01 02:20:09;;;;;;;24.07;17.10;;;;;;;;;;4987399;28;20852;-60
2023/01/01 02:22:41;;;;;;;21.97;13.60;;;;;;;;;;4962511;28;20939;-60
2023/01/01 02:25:25;;;;;;;21.53;13.30;;;;;;;;;;4985818;28;21348;-65
2023/01/01 02:27:54;;;;;;;26.50;15.13;;;;;;;;;;4967038;28;20439;-62
2023/01/01 02:30:20;;;;;;;13.77;10.40;;;;;;;;;;4995865;28;20964;-58
2023/01/01 02:32:47;;;;;;;11.60;8.80;;;;;;;;;;4957097;28;20523;-59
2023/01/01 02:35:33;;;;;;;11.13;7.13;;;;;;;;;;4978492;28;20915;-59
2023/01/01 02:38:00;;;;;;;9.37;5.27;;;;;;;;;;4949526;28;20455;-60
2023/01/01 02:40:26;;;;;;;7.50;5.80;;;;;;;;;;4981286;28;20467;-59
2023/01/01 02:42:52;;;;;;;4.90;4.23;;;;;;;;;;4929671;28;20891;-60
2023/01/01 02:45:18;;;;;;;4.77;3.60;;;;;;;;;;4965075;28;20933;-61
2023/01/01 02:47:44;;;;;;;6.40;4.63;;;;;;;;;;4952414;28;20435;-59
2023/01/01 02:50:12;;;;;;;5.43;3.43;;;;;;;;;;4987726;28;20436;-62
2023/01/01 02:52:41;;;;;;;8.03;3.73;;;;;;;;;;4945457;28;21103;-61
2023/01/01 02:55:11;;;;;;;8.43;4.00;;;;;;;;;;4985998;28;21010;-60
2023/01/01 02:57:37;;;;;;;3.43;2.97;;;;;;;;;;4941206;28;20449;-61
2023/01/01 03:00:20;;;;;;;4.00;3.13;;;;;;;;;;4994891;28;20440;-60
2023/01/01 03:03:05;;;;;;;5.50;3.27;;;;;;;;;;4977157;28;20548;-59
2023/01/01 03:08:37;;;;;;;3.63;2.57;;;;;;;;;;4947112;28;20514;-60
2023/01/01 03:11:07;;;;;;;5.43;3.20;;;;;;;;;;4958986;28;20456;-59
2023/01/01 03:13:41;;;;;;;4.57;2.73;;;;;;;;;;4985654;28;20577;-60
2023/01/01 03:16:10;;;;;;;3.80;2.40;;;;;;;;;;4944689;28;21285;-58
2023/01/01 03:18:48;;;;;;;8.50;3.30;;;;;;;;;;4982327;28;20423;-60
2023/01/01 03:21:15;;;;;;;5.87;3.43;;;;;;;;;;4954166;28;20555;-60
2023/01/01 03:23:41;;;;;;;6.97;3.13;;;;;;;;;;4985023;28;20432;-59
2023/01/01 03:26:09;;;;;;;3.70;2.53;;;;;;;;;;4956385;28;20444;-62
2023/01/01 03:28:36;;;;;;;3.77;2.97;;;;;;;;;;4980769;28;21638;-61
2023/01/01 03:31:02;;;;;;;6.00;2.70;;;;;;;;;;4953702;28;21278;-61
2023/01/01 03:33:42;;;;;;;3.50;2.70;;;;;;;;;;4979091;28;20483;-62
2023/01/01 03:36:12;;;;;;;4.47;2.80;;;;;;;;;;4973580;28;20560;-62
2023/01/01 03:38:58;;;;;;;4.63;3.00;;;;;;;;;;4982444;28;20969;-62
2023/01/01 03:41:27;;;;;;;4.60;2.57;;;;;;;;;;4985939;28;20486;-62
2023/01/01 03:43:54;;;;;;;5.17;2.70;;;;;;;;;;4987051;28;20946;-61
2023/01/01 03:46:21;;;;;;;2.80;2.20;;;;;;;;;;4922081;28;20444;-61
2023/01/01 03:48:56;;;;;;;3.43;2.70;;;;;;;;;;4983466;28;20436;-63
2023/01/01 03:51:40;;;;;;;7.67;4.70;;;;;;;;;;4951722;28;20609;-60
2023/01/01 03:54:07;;;;;;;4.70;2.93;;;;;;;;;;4985300;28;21288;-60
2023/01/01 03:56:33;;;;;;;6.00;2.80;;;;;;;;;;4988376;28;20427;-62
2023/01/01 03:59:00;;;;;;;6.40;4.10;;;;;;;;;;4998905;28;21448;-62
2023/01/01 04:01:27;;;;;;;6.47;3.60;;;;;;;;;;4973982;28;20775;-63
2023/01/01 04:03:53;;;;;;;5.13;2.87;;;;;;;;;;4994696;28;20431;-62
2023/01/01 04:06:19;;;;;;;7.13;3.90;;;;;;;;;;4954490;28;21075;-61
2023/01/01 04:08:45;;;;;;;5.20;3.83;;;;;;;;;;4991749;28;20181;-58
2023/01/01 04:14:02;;;;;;;5.00;4.20;;;;;;;;;;4978121;28;20499;-63
2023/01/01 04:16:28;;;;;;;7.63;4.10;;;;;;;;;;4972491;28;20439;-63
2023/01/01 04:18:54;;;;;;;5.53;4.00;;;;;;;;;;5000503;28;20436;-63
2023/01/01 04:21:20;;;;;;;7.63;3.50;;;;;;;;;;4959747;28;20716;-64
2023/01/01 04:23:46;;;;;;;6.73;3.40;;;;;;;;;;4997169;28;20459;-62
2023/01/01 04:26:13;;;;;;;6.40;4.67;;;;;;;;;;4973868;28;21024;-63
2023/01/01 04:28:40;;;;;;;5.47;4.00;;;;;;;;;;4986410;28;20436;-63
2023/01/01 04:31:06;;;;;;;4.90;3.83;;;;;;;;;;4983095;28;20818;-62
2023/01/01 04:33:32;;;;;;;5.63;3.57;;;;;;;;;;4987565;28;21411;-62
2023/01/01 04:36:02;;;;;;;6.17;3.77;;;;;;;;;;4981187;28;21088;-62
2023/01/01 04:38:28;;;;;;;6.43;3.87;;;;;;;;;;4976670;28;20436;-61
2023/01/01 04:40:57;;;;;;;5.70;3.73;;;;;;;;;;4989082;28;20465;-62
2023/01/01 04:43:23;;;;;;;4.97;3.57;;;;;;;;;;4986642;28;20291;-61
2023/01/01 04:45:56;;;;;;;6.67;5.03;;;;;;;;;;4984684;28;20450;-62
2023/01/01 04:48:22;;;;;;;6.10;3.40;;;;;;;;;;4983981;28;20188;-63
2023/01/01 04:50:57;;;;;;;5.37;2.93;;;;;;;;;;4985689;28;20431;-63
2023/01/01 04:53:23;;;;;;;8.60;3.63;;;;;;;;;;4973904;28;20445;-63
2023/01/01 04:55:50;;;;;;;6.53;3.50;;;;;;;;;;4959936;28;20903;-62
2023/01/01 04:58:16;;;;;;;7.00;4.67;;;;;;;;;;4939150;28;20503;-62
2023/01/01 05:00:42;;;;;;;4.60;3.73;;;;;;;;;;4986876;28;20437;-62
2023/01/01 05:03:08;;;;;;;4.20;3.70;;;;;;;;;;4993961;28;20436;-62
2023/01/01 05:05:34;;;;;;;6.70;4.00;;;;;;;;;;4993698;28;20177;-61
2023/01/01 05:08:00;;;;;;;5.70;3.33;;;;;;;;;;4986059;28;20455;-62
2023/01/01 05:10:25;;;;;;;3.63;3.17;;;;;;;;;;4995882;28;20174;-63
2023/01/01 05:12:51;;;;;;;5.30;4.03;;;;;;;;;;4972615;28;20522;-62
2023/01/01 05:15:17;;;;;;;5.87;3.60;;;;;;;;;;5002516;28;20217;-63
2023/01/01 05:17:43;;;;;;;6.60;4.90;;;;;;;;;;4982710;28;21012;-60
2023/01/01 05:20:09;;;;;;;5.10;3.53;;;;;;;;;;4982194;28;20236;-62
2023/01/01 05:22:35;;;;;;;5.67;3.77;;;;;;;;;;4978724;28;20196;-62
2023/01/01 05:25:02;;;;;;;8.67;3.90;;;;;;;;;;4996822;28;21428;-61
2023/01/01 05:27:28;;;;;;;5.60;3.20;;;;;;;;;;4956041;28;20528;-62
2023/01/01 05:29:54;;;;;;;4.93;3.00;;;;;;;;;;4995874;28;20944;-61
2023/01/01 05:32:19;;;;;;;3.13;2.03;;;;;;;;;;4987485;28;20964;-61
2023/01/01 05:34:45;;;;;;;3.83;2.27;;;;;;;;;;4992701;28;20957;-62
2023/01/01 05:37:11;;;;;;;12.43;2.63;;;;;;;;;;4994597;28;20191;-61
2023/01/01 05:39:37;;;;;;;4.47;2.57;;;;;;;;;;4998825;28;20268;-63
2023/01/01 05:42:03;;;;;;;6.90;3.40;;;;;;;;;;4970609;28;20324;-63
2023/01/01 05:44:29;;;;;;;3.90;2.90;;;;;;;;;;5003665;28;20208;-61
2023/01/01 05:46:55;;;;;;;4.83;3.10;;;;;;;;;;4951287;28;23500;-60
2023/01/01 05:49:21;;;;;;;6.53;3.10;;;;;;;;;;4981226;28;20542;-61
2023/01/01 05:51:47;;;;;;;6.77;3.10;;;;;;;;;;4992961;28;20420;-62
2023/01/01 05:54:13;;;;;;;6.13;2.77;;;;;;;;;;4986309;28;20521;-62
2023/01/01 05:56:39;;;;;;;4.97;3.10;;;;;;;;;;4988106;28;20216;-61
2023/01/01 05:59:05;;;;;;;4.40;2.60;;;;;;;;;;4963960;28;20439;-64
2023/01/01 06:01:31;;;;;;;5.63;3.27;;;;;;;;;;4989343;28;20436;-62
2023/01/01 06:03:58;;;;;;;2.93;2.10;;;;;;;;;;4993620;28;20464;-62
2023/01/01 06:06:25;;;;;;;5.97;3.10;;;;;;;;;;4997019;28;20455;-62
2023/01/01 06:08:50;;;;;;;4.73;2.70;;;;;;;;;;4970982;28;20452;-64
2023/01/01 06:11:16;;;;;;;5.83;2.90;;;;;;;;;;4991333;28;20439;-62
2023/01/01 06:13:42;;;;;;;5.30;2.97;;;;;;;;;;4961254;28;20546;-61
2023/01/01 06:16:08;;;;;;;5.53;2.70;;;;;;;;;;4976959;28;20444;-63
2023/01/01 06:18:34;;;;;;;4.80;2.93;;;;;;;;;;4976342;28;20199;-62
2023/01/01 06:21:07;;;;;;;4.73;3.03;;;;;;;;;;4986383;28;20866;-63
2023/01/01 06:23:33;;;;;;;3.70;2.70;;;;;;;;;;4985638;28;20504;-63
2023/01/01 06:26:06;;;;;;;6.63;2.80;;;;;;;;;;4989833;28;20522;-63
2023/01/01 06:28:31;;;;;;;3.70;2.77;;;;;;;;;;4940236;28;20465;-62
2023/01/01 06:31:01;;;;;;;6.70;4.80;;;;;;;;;;4983882;28;20448;-62
2023/01/01 06:33:28;;;;;;;5.20;3.40;;;;;;;;;;4984955;28;20532;-61
2023/01/01 06:35:54;;;;;;;5.33;3.20;;;;;;;;;;4991594;28;20476;-57
2023/01/01 06:38:19;;;;;;;4.93;2.27;;;;;;;;;;4983883;28;20469;-61
2023/01/01 06:40:54;;;;;;;6.27;3.43;;;;;;;;;;4986782;28;20235;-61
2023/01/01 06:43:20;;;;;;;5.60;2.77;;;;;;;;;;4989231;28;21013;-63
2023/01/01 06:45:46;;;;;;;4.10;3.03;;;;;;;;;;4989520;28;20456;-62
2023/01/01 06:48:12;;;;;;;4.27;3.10;;;;;;;;;;4964725;28;20185;-65
2023/01/01 06:50:38;;;;;;;5.10;3.33;;;;;;;;;;4991582;28;20445;-63
2023/01/01 06:53:04;;;;;;;4.63;3.33;;;;;;;;;;4965915;28;20192;-63
2023/01/01 06:55:30;;;;;;;5.60;3.20;;;;;;;;;;4991479;28;20530;-62
2023/01/01 06:57:56;;;;;;;6.00;3.60;;;;;;;;;;4966767;28;20517;-64
2023/01/01 07:00:22;;;;;;;4.20;3.13;;;;;;;;;;4992662;28;20915;-62
2023/01/01 07:02:48;;;;;;;5.67;2.77;;;;;;;;;;4946290;28;20206;-65
2023/01/01 07:05:14;;;;;;;4.80;3.47;;;;;;;;;;4983565;28;20553;-66
2023/01/01 07:07:39;;;;;;;4.27;3.13;;;;;;;;;;4972593;28;20443;-64
2023/01/01 07:10:06;;;;;;;5.67;3.53;;;;;;;;;;4993172;28;21020;-67
2023/01/01 07:12:32;;;;;;;5.07;3.90;;;;;;;;;;4992396;28;20428;-68
2023/01/01 07:14:58;;;;;;;6.17;3.23;;;;;;;;;;4993596;28;21065;-67
2023/01/01 07:17:23;;;;;;;3.10;2.80;;;;;;;;;;4970385;28;20437;-64
2023/01/01 07:19:49;;;;;;;5.93;2.93;;;;;;;;;;4989786;28;20444;-67
2023/01/01 07:22:15;;;;;;;9.70;2.97;;;;;;;;;;4964219;28;20448;-68
2023/01/01 07:24:41;;;;;;;4.03;2.43;;;;;;;;;;4990074;28;20510;-65
2023/01/01 07:27:07;;;;;;;5.37;2.90;;;;;;;;;;4969922;28;20190;-65
2023/01/01 07:29:33;;;;;;;5.20;3.23;;;;;;;;;;4988512;28;20189;-66
2023/01/01 07:31:59;;;;;;;12.30;3.50;;;;;;;;;;4988185;28;20515;-65
2023/01/01 07:34:25;;;;;;;2.90;2.60;;;;;;;;;;4989267;28;20512;-65
2023/01/01 07:36:51;;;;;;;4.93;3.03;;;;;;;;;;4945512;28;20452;-64
2023/01/01 07:39:17;;;;;;;4.73;2.93;;;;;;;;;;4995920;28;20334;-63
2023/01/01 07:41:43;;;;;;;4.97;2.90;;;;;;;;;;4983568;28;20452;-63
2023/01/01 07:44:09;;;;;;;7.10;2.87;;;;;;;;;;4988662;28;20490;-64
2023/01/01 07:46:35;;;;;;;8.60;3.17;;;;;;;;;;4980775;28;20549;-64
2023/01/01 07:49:01;;;;;;;3.80;3.10;;;;;;;;;;4994489;28;20177;-67
2023/01/01 07:51:27;;;;;;;5.50;3.40;;;;;;;;;;4964322;28;20443;-64
2023/01/01 07:53:53;;;;;;;5.53;3.37;;;;;;;;;;4992981;28;20566;-65
2023/01/01 07:56:19;;;;;;;6.60;3.00;;;;;;;;;;4973153;28;20243;-63
2023/01/01 07:58:45;;;;;;;4.00;3.00;;;;;;;;;;4956513;28;20447;-64
2023/01/01 08:01:11;;;;;;;4.00;2.50;;;;;;;;;;4965415;28;20443;-65
2023/01/01 08:03:37;;;;;;;3.80;3.00;;;;;;;;;;4976220;28;23649;-65
2023/01/01 08:06:10;;;;;;;4.10;3.17;;;;;;;;;;4988938;28;20436;-62
2023/01/01 08:08:36;;;;;;;2.63;2.43;;;;;;;;;;4990729;28;20452;-64
2023/01/01 08:11:02;;;;;;;4.40;2.93;;;;;;;;;;4945232;28;20431;-62
2023/01/01 08:13:28;;;;;;;4.93;2.93;;;;;;;;;;4995454;28;20510;-63
2023/01/01 08:15:56;;;;;;;7.63;3.40;;;;;;;;;;4989438;28;20523;-64
2023/01/01 08:18:21;;;;;;;7.30;2.80;;;;;;;;;;4991902;28;20470;-64
2023/01/01 08:20:47;;;;;;;6.90;3.03;;;;;;;;;;4964585;28;21187;-64
2023/01/01 08:23:13;;;;;;;4.77;2.70;;;;;;;;;;4997255;28;20436;-66
2023/01/01 08:25:39;;;;;;;5.87;3.50;;;;;;;;;;4976320;28;22238;-64
2023/01/01 08:28:05;;;;;;;7.70;2.90;;;;;;;;;;4989964;28;20467;-65
2023/01/01 08:30:31;;;;;;;5.93;3.10;;;;;;;;;;4986650;28;20652;-62
2023/01/01 08:32:57;;;;;;;3.80;2.70;;;;;;;;;;4992051;28;20993;-65
2023/01/01 08:35:23;;;;;;;3.93;2.70;;;;;;;;;;4978378;28;20522;-65
2023/01/01 08:37:49;;;;;;;5.90;3.20;;;;;;;;;;4974142;28;20828;-63
2023/01/01 08:40:15;;;;;;;9.17;3.90;;;;;;;;;;4973656;28;20527;-65
2023/01/01 08:42:41;;;;;;;5.40;2.87;;;;;;;;;;4967556;28;21193;-68
2023/01/01 08:45:07;;;;;;;5.73;3.67;;;;;;;;;;4991432;28;20447;-64
2023/01/01 08:47:33;;;;;;;5.40;3.50;;;;;;;;;;4984114;28;20186;-65
2023/01/01 08:49:59;;;;;;;7.67;3.00;;;;;;;;;;4991645;28;20499;-66
2023/01/01 08:52:25;;;;;;;5.70;2.60;;;;;;;;;;4968653;28;20428;-66
2023/01/01 08:54:51;;;;;;;7.47;3.40;;;;;;;;;;4971134;28;20204;-63
2023/01/01 08:57:17;;;;;;;7.80;3.43;;;;;;;;;;4992449;28;20428;-65
2023/01/01 08:59:43;;;;;;;12.03;3.20;;;;;;;;;;4965478;28;20461;-65
2023/01/01 09:02:09;;;;;;;6.50;3.23;;;;;;;;;;4993207;28;20771;-67
2023/01/01 09:04:35;;;;;;;5.17;3.37;;;;;;;;;;4970579;28;20464;-64
2023/01/01 09:07:01;;;;;;;5.70;3.37;;;;;;;;;;4992334;28;20437;-65
2023/01/01 09:09:27;;;;;;;5.97;3.20;;;;;;;;;;4966364;28;20595;-65
2023/01/01 09:11:54;;;;;;;5.63;3.30;;;;;;;;;;4997658;28;20471;-67
2023/01/01 09:14:20;;;;;;;4.53;3.23;;;;;;;;;;4953732;28;21865;-65
2023/01/01 09:16:46;;;;;;;4.13;2.97;;;;;;;;;;4983039;28;20451;-63
2023/01/01 09:19:12;;;;;;;4.37;2.27;;;;;;;;;;4971862;28;20957;-63
2023/01/01 09:21:38;;;;;;;4.40;2.73;;;;;;;;;;4985633;28;20448;-66
2023/01/01 09:24:04;;;;;;;3.73;2.87;;;;;;;;;;4989699;28;20431;-65
2023/01/01 09:26:30;;;;;;;4.20;2.70;;;;;;;;;;4990958;28;20463;-64
2023/01/01 09:28:57;;;;;;;5.47;3.33;;;;;;;;;;4972993;28;20443;-67
2023/01/01 09:31:23;;;;;;;4.37;3.03;;;;;;;;;;4976048;28;20203;-63
2023/01/01 09:33:49;;;;;;;6.07;2.93;;;;;;;;;;4990097;28;20607;-68
2023/01/01 09:36:35;;;;;;;5.03;2.60;;;;;;;;;;4966139;28;22466;-65
2023/01/01 09:39:01;;;;;;;3.40;2.63;;;;;;;;;;4962568;28;20429;-66
2023/01/01 09:41:27;;;;;;;4.67;2.77;;;;;;;;;;4987154;28;20492;-68
2023/01/01 09:43:53;;;;;;;2.93;2.50;;;;;;;;;;4974766;28;20429;-61
2023/01/01 09:46:19;;;;;;;4.00;3.60;;;;;;;;;;4984824;28;20631;-66
2023/01/01 09:48:49;;;;;;;5.93;2.50;;;;;;;;;;4944991;28;21481;-67
2023/01/01 09:51:16;;;;;;;4.23;2.57;;;;;;;;;;4971625;28;20937;-63
2023/01/01 09:53:47;;;;;;;5.80;2.53;;;;;;;;;;4949186;28;20481;-64
2023/01/01 09:56:23;;;;;;;4.50;3.20;;;;;;;;;;4988518;28;20448;-62
2023/01/01 09:58:49;;;;;;;6.10;3.00;;;;;;;;;;4969368;28;20468;-63
2023/01/01 10:01:17;;;;;;;4.20;3.60;;;;;;;;;;5001354;28;20494;-61
2023/01/01 10:03:59;;;;;;;12.60;2.70;;;;;;;;;;4973340;28;20439;-61
2023/01/01 10:06:27;;;;;;;5.47;2.83;;;;;;;;;;4977904;28;20545;-62
2023/01/01 10:09:03;;;;;;;5.80;2.40;;;;;;;;;;4972021;28;20598;-65
2023/01/01 10:11:35;;;;;;;5.50;1.70;;;;;;;;;;4996101;28;20448;-65
2023/01/01 10:14:01;;;;;;;3.43;2.50;;;;;;;;;;4990693;28;20481;-63
2023/01/01 10:16:43;;;;;;;3.80;2.50;;;;;;;;;;4973308;28;20447;-64
2023/01/01 10:19:24;;;;;;;4.17;2.50;;;;;;;;;;4965967;28;21024;-63
2023/01/01 10:21:50;;;;;;;5.37;3.00;;;;;;;;;;4990502;28;20598;-63
2023/01/01 10:24:27;;;;;;;6.47;2.77;;;;;;;;;;4974963;28;20865;-64
2023/01/01 10:26:53;;;;;;;3.90;2.77;;;;;;;;;;4962101;28;21067;-61
2023/01/01 10:29:21;;;;;;;9.30;4.47;;;;;;;;;;4959116;28;20444;-65
2023/01/01 10:31:48;;;;;;;5.77;3.27;;;;;;;;;;4967573;28;20476;-65
2023/01/01 10:34:15;;;;;;;7.00;2.93;;;;;;;;;;4991738;28;20471;-62
2023/01/01 10:36:42;;;;;;;3.87;2.70;;;;;;;;;;4969275;28;20486;-65
2023/01/01 10:39:09;;;;;;;3.73;2.47;;;;;;;;;;4969080;28;20752;-64
2023/01/01 10:41:35;;;;;;;3.63;2.30;;;;;;;;;;4971955;28;20440;-66
2023/01/01 10:44:01;;;;;;;6.63;2.87;;;;;;;;;;4946313;28;20482;-65
2023/01/01 10:46:27;;;;;;;4.87;2.50;;;;;;;;;;4981196;28;20464;-65
2023/01/01 10:49:04;;;;;;;3.03;2.40;;;;;;;;;;4953364;28;20452;-64
2023/01/01 10:51:30;;;;;;;2.90;1.90;;;;;;;;;;4962755;28;21035;-65
2023/01/01 10:53:56;;;;;;;3.90;3.03;;;;;;;;;;4983782;28;20517;-65
2023/01/01 10:56:22;;;;;;;5.43;2.10;;;;;;;;;;4963712;28;20443;-64
2023/01/01 10:58:49;;;;;;;5.77;2.10;;;;;;;;;;4960472;28;21057;-66
2023/01/01 11:01:19;;;;;;;4.80;2.30;;;;;;;;;;4971571;28;20431;-65
2023/01/01 11:03:58;;;;;;;3.27;2.43;;;;;;;;;;4981652;28;20527;-65
2023/01/01 11:06:24;;;;;;;4.27;2.50;;;;;;;;;;4990635;28;20448;-65
2023/01/01 11:08:54;;;;;;;8.50;4.30;;;;;;;;;;4981775;28;20438;-65
2023/01/01 11:11:22;;;;;;;4.53;2.03;;;;;;;;;;4985989;28;20241;-64
2023/01/01 11:13:50;;;;;;;3.90;2.20;;;;;;;;;;4977870;28;20473;-64
2023/01/01 11:16:16;;;;;;;16.07;3.10;;;;;;;;;;4983033;28;20539;-64
2023/01/01 11:18:42;;;;;;;5.10;2.20;;;;;;;;;;4955649;28;20490;-64
2023/01/01 11:21:19;;;;;;;6.67;3.17;;;;;;;;;;4975864;28;20459;-67
2023/01/01 11:23:45;;;;;;;3.73;2.60;;;;;;;;;;4932794;28;20590;-64
2023/01/01 11:26:11;;;;;;;3.30;2.33;;;;;;;;;;4986874;28;20527;-63
2023/01/01 11:28:40;;;;;;;3.30;1.97;;;;;;;;;;4969027;28;20800;-61
2023/01/01 11:31:06;;;;;;;5.97;2.50;;;;;;;;;;4990273;28;20211;-63
2023/01/01 11:33:37;;;;;;;5.27;3.17;;;;;;;;;;4967937;28;21463;-61
2023/01/01 11:36:03;;;;;;;9.07;2.37;;;;;;;;;;4996437;28;20428;-65
2023/01/01 11:38:29;;;;;;;6.57;2.20;;;;;;;;;;4948285;28;21178;-65
2023/01/01 11:40:55;;;;;;;6.30;3.13;;;;;;;;;;4993822;28;20447;-64
2023/01/01 11:43:26;;;;;;;3.10;2.20;;;;;;;;;;4947909;28;20482;-66
2023/01/01 11:45:52;;;;;;;4.07;2.30;;;;;;;;;;4977157;28;20444;-66
2023/01/01 11:48:23;;;;;;;4.70;2.27;;;;;;;;;;4949969;28;20444;-62
2023/01/01 11:51:00;;;;;;;3.63;2.23;;;;;;;;;;4980201;28;20512;-63
2023/01/01 11:53:28;;;;;;;5.07;3.00;;;;;;;;;;4903211;28;21030;-63
2023/01/01 11:55:54;;;;;;;4.57;1.90;;;;;;;;;;4971979;28;20837;-62
2023/01/01 11:58:25;;;;;;;3.63;2.00;;;;;;;;;;4962430;28;20452;-63
2023/01/01 12:00:54;;;;;;;3.50;2.03;;;;;;;;;;4988683;28;20563;-64
2023/01/01 12:03:33;;;;;;;5.53;3.03;;;;;;;;;;4980093;28;20486;-62
2023/01/01 12:05:59;;;;;;;3.23;2.37;;;;;;;;;;4955569;28;20907;-63
2023/01/01 12:08:27;;;;;;;3.27;2.87;;;;;;;;;;5001259;28;21004;-63
2023/01/01 12:10:55;;;;;;;3.50;2.90;;;;;;;;;;4948746;28;20748;-63
2023/01/01 12:13:22;;;;;;;4.47;1.93;;;;;;;;;;4998759;28;20922;-63
2023/01/01 12:16:04;;;;;;;5.93;2.37;;;;;;;;;;4957444;28;20472;-63
2023/01/01 12:18:41;;;;;;;4.23;2.73;;;;;;;;;;4994473;28;20433;-63
2023/01/01 12:21:22;;;;;;;6.43;2.90;;;;;;;;;;4971523;28;20447;-63
2023/01/01 12:23:48;;;;;;;7.27;2.80;;;;;;;;;;4998384;28;20460;-63
2023/01/01 12:26:19;;;;;;;5.90;2.83;;;;;;;;;;4936600;28;20440;-61
2023/01/01 12:29:00;;;;;;;4.97;2.10;;;;;;;;;;4977036;28;20559;-65
2023/01/01 12:31:26;;;;;;;5.73;2.43;;;;;;;;;;4988839;28;20444;-67
2023/01/01 12:34:04;;;;;;;6.63;2.80;;;;;;;;;;4980079;28;20487;-62
2023/01/01 12:36:41;;;;;;;5.07;2.13;;;;;;;;;;4971506;28;21613;-61
2023/01/01 12:39:19;;;;;;;6.37;2.80;;;;;;;;;;4988783;28;20499;-62
2023/01/01 12:41:54;;;;;;;6.87;2.07;;;;;;;;;;4951470;28;20464;-63
2023/01/01 12:44:42;;;;;;;6.10;2.10;;;;;;;;;;4968616;28;20448;-62
2023/01/01 12:47:17;;;;;;;3.53;2.47;;;;;;;;;;4991495;28;20447;-63
2023/01/01 12:49:49;;;;;;;6.80;2.30;;;;;;;;;;4916173;28;20436;-63
2023/01/01 12:52:35;;;;;;;5.00;2.00;;;;;;;;;;4997857;28;20428;-62
2023/01/01 12:55:01;;;;;;;5.20;2.50;;;;;;;;;;4948287;28;20512;-62
2023/01/01 12:57:40;;;;;;;3.70;2.07;;;;;;;;;;4994165;28;20459;-62
2023/01/01 13:00:16;;;;;;;6.07;2.23;;;;;;;;;;4948420;28;20448;-62
2023/01/01 13:02:46;;;;;;;3.37;1.97;;;;;;;;;;4976274;28;20630;-62
2023/01/01 13:05:17;;;;;;;4.90;2.00;;;;;;;;;;4986293;28;20436;-62
2023/01/01 13:07:43;;;;;;;7.40;2.57;;;;;;;;;;4977646;28;20451;-62
2023/01/01 13:10:29;;;;;;;9.53;4.73;;;;;;;;;;4962902;28;20458;-63
2023/01/01 13:12:55;;;;;;;3.90;2.17;;;;;;;;;;4987353;28;20441;-63
2023/01/01 13:15:40;;;;;;;3.93;2.60;;;;;;;;;;4979665;28;20491;-62
2023/01/01 13:18:15;;;;;;;3.93;1.93;;;;;;;;;;4994517;28;20478;-63
2023/01/01 13:20:45;;;;;;;6.30;2.40;;;;;;;;;;4965485;28;21625;-60
2023/01/01 13:23:29;;;;;;;5.40;2.50;;;;;;;;;;4998547;28;20929;-63
2023/01/01 13:26:14;;;;;;;4.13;2.00;;;;;;;;;;4968363;28;20461;-63
2023/01/01 13:28:40;;;;;;;4.53;2.80;;;;;;;;;;4973346;28;20444;-63
2023/01/01 13:34:30;;;;;;;4.50;2.03;;;;;;;;;;4931599;28;20583;-63
2023/01/01 13:37:12;;;;;;;5.67;3.47;;;;;;;;;;4989709;28;20456;-62
2023/01/01 13:39:54;;;;;;;5.10;2.47;;;;;;;;;;4974415;28;20453;-64
2023/01/01 13:42:56;;;;;;;4.60;2.43;;;;;;;;;;4972508;28;20504;-60
2023/01/01 13:45:29;;;;;;;4.40;2.30;;;;;;;;;;4964837;28;20539;-62
2023/01/01 13:48:07;;;;;;;4.80;2.23;;;;;;;;;;4962836;28;20974;-65
2023/01/01 13:50:53;;;;;;;3.00;2.20;;;;;;;;;;4983194;28;20440;-61
2023/01/01 13:53:19;;;;;;;4.07;1.87;;;;;;;;;;4945906;28;20503;-62
2023/01/01 13:55:48;;;;;;;5.93;2.67;;;;;;;;;;4984857;28;20480;-65
2023/01/01 13:58:14;;;;;;;5.23;2.67;;;;;;;;;;4979666;28;20607;-63
2023/01/01 14:00:43;;;;;;;5.60;3.47;;;;;;;;;;4976867;28;20947;-61
2023/01/01 14:03:13;;;;;;;4.17;2.70;;;;;;;;;;4975889;28;20719;-64
2023/01/01 14:06:15;;;;;;;10.67;2.50;;;;;;;;;;4976344;28;20966;-62
2023/01/01 14:08:41;;;;;;;7.07;2.73;;;;;;;;;;4957731;28;20975;-63
2023/01/01 14:11:20;;;;;;;3.93;1.90;;;;;;;;;;4967152;28;20428;-60
2023/01/01 14:13:46;;;;;;;5.27;2.47;;;;;;;;;;4977924;28;20536;-63
2023/01/01 14:16:15;;;;;;;9.83;2.60;;;;;;;;;;4994756;28;20453;-63
2023/01/01 14:18:45;;;;;;;10.60;2.97;;;;;;;;;;4946184;28;20474;-62
2023/01/01 14:21:15;;;;;;;5.53;3.73;;;;;;;;;;4966216;28;20443;-63
2023/01/01 14:23:42;;;;;;;13.20;2.90;;;;;;;;;;4967231;28;20511;-63
2023/01/01 14:26:12;;;;;;;4.77;3.20;;;;;;;;;;4971616;28;20448;-64
2023/01/01 14:28:38;;;;;;;4.97;2.50;;;;;;;;;;4950560;28;21010;-63
2023/01/01 14:31:05;;;;;;;5.80;2.90;;;;;;;;;;4992805;28;20467;-63
2023/01/01 14:33:32;;;;;;;9.37;2.50;;;;;;;;;;4936927;28;20452;-63
2023/01/01 14:36:03;;;;;;;3.87;2.03;;;;;;;;;;4984162;28;20468;-62
2023/01/01 14:38:29;;;;;;;4.40;2.60;;;;;;;;;;4951419;28;20448;-62
2023/01/01 14:40:59;;;;;;;4.77;2.27;;;;;;;;;;4985570;28;20452;-64
2023/01/01 14:43:25;;;;;;;6.90;2.40;;;;;;;;;;4961403;28;20440;-64
2023/01/01 14:45:52;;;;;;;8.70;2.83;;;;;;;;;;4955803;28;20943;-62
2023/01/01 14:48:18;;;;;;;11.10;3.77;;;;;;;;;;4960221;28;20450;-64
2023/01/01 14:50:49;;;;;;;6.43;2.80;;;;;;;;;;4989491;28;20440;-63
2023/01/01 14:53:17;;;;;;;5.97;2.57;;;;;;;;;;4943341;28;20440;-62
2023/01/01 14:55:44;;;;;;;5.73;2.90;;;;;;;;;;4989725;28;20474;-67
2023/01/01 14:58:20;;;;;;;6.87;3.13;;;;;;;;;;4942837;28;20448;-63